CEFAS Endeavour — VQHF3 — position and weather

sailwx.info

Track history (hours):
 
Tides and Currents Weather Stations Pressure Air Temp Water Temp Dewpoint Dewpoint Depression Visibility Wind Speed Wind Dir Waves Ship Positions

Oceanographic research ship CEFAS Endeavour (UK)

Detailed information on ship capabilities available from University of Delaware's Ocean Information Center.

Last reported at 2018-Dec-11 14:04 UTC. Time now 2018-Dec-13 15:22 UTC.
Position N 55°27' W 001°07'.

Length 74 m; draft 5.3 m.

Type: Ship. MMSI: 235005270.

Date/timePositionNaut miles runAvg speedWind from/ knotsBaromVisibWave heightAir tempDewpointWater temp
2018-Dec-11 14:04N 55°27' W 001°07'0 0.0
2018-Dec-11 13:54N 55°27' W 001°07'0 0.1
2018-Dec-11 13:02N 55°27' W 001°07'2 0.3
2018-Dec-11 07:23N 55°26' W 001°06'66 8.8
2018-Dec-10 23:55N 54°31' W 000°03'612.3
2018-Dec-10 23:26N 54°26' E 000°02'512.3
2018-Dec-10 23:00N 54°21' E 000°07'612.1
2018-Dec-10 22:30N 54°16' E 000°13'611.9
2018-Dec-10 22:00N 54°11' E 000°18'611.4
2018-Dec-10 21:30N 54°06' E 000°23'611.1
2018-Dec-10 21:00N 54°02' E 000°28'510.6
2018-Dec-10 20:30N 53°57' E 000°33'710.1
2018-Dec-10 19:47N 53°51' E 000°40'30 8.8
2018-Dec-10 16:23N 53°26' E 001°06'4 9.9
2018-Dec-10 16:00N 53°22' E 001°09'611.5
2018-Dec-10 15:30N 53°17' E 001°14'612.5
2018-Dec-10 15:00N 53°12' E 001°19'612.8
2018-Dec-10 14:31N 53°06' E 001°24'612.6
2018-Dec-10 14:00N 53°01' E 001°30'612.7
2018-Dec-10 13:30N 52°56' E 001°37'612.2
2018-Dec-10 13:00N 52°51' E 001°43'611.4
2018-Dec-10 12:30N 52°46' E 001°47'511.0
2018-Dec-10 12:01N 52°41' E 001°50'5 9.7
2018-Dec-10 11:30N 52°36' E 001°52'510.1
2018-Dec-10 11:00N 52°31' E 001°51'5 9.5
2018-Dec-10 10:31N 52°27' E 001°49'4 7.5
2018-Dec-10 10:01N 52°30' E 001°46'2 4.1
2018-Dec-10 09:30N 52°28' E 001°45'0 0.5
2018-Dec-10 09:00N 52°28' E 001°45'0 0.0
2018-Dec-09 23:51N 52°28' E 001°45'0 0.0
2018-Dec-09 23:30N 52°28' E 001°45'0 0.0
2018-Dec-09 23:00N 52°28' E 001°45'0 0.0
2018-Dec-09 22:30N 52°28' E 001°45'0 0.0
2018-Dec-09 22:00N 52°28' E 001°45'0 0.0
2018-Dec-09 21:30N 52°28' E 001°45'0 0.0
2018-Dec-09 21:00N 52°28' E 001°45'0 0.0
2018-Dec-09 20:30N 52°28' E 001°45'0 0.0
2018-Dec-09 19:57N 52°28' E 001°45'0 0.0
2018-Dec-09 19:30N 52°28' E 001°45'0 0.0
2018-Dec-09 19:00N 52°28' E 001°45'0 0.0
2018-Dec-09 18:27N 52°28' E 001°45'0 0.0
2018-Dec-09 18:00N 52°28' E 001°45'0 0.0
2018-Dec-09 17:30N 52°28' E 001°45'0 0.0
2018-Dec-09 16:57N 52°28' E 001°45'0 0.0
2018-Dec-09 16:30N 52°28' E 001°45'0 0.0
2018-Dec-09 16:00N 52°28' E 001°45'0 0.0
2018-Dec-09 15:30N 52°28' E 001°45'0 0.0
2018-Dec-09 15:00N 52°28' E 001°45'0 0.0
2018-Dec-09 14:30N 52°28' E 001°45'0 0.0
2018-Dec-09 14:00N 52°28' E 001°45'0 0.0
2018-Dec-09 13:30N 52°28' E 001°45'0 0.0
2018-Dec-09 13:00N 52°28' E 001°45'0 0.0
2018-Dec-09 12:30N 52°28' E 001°45'0 0.0
2018-Dec-09 12:00N 52°28' E 001°45'0 0.0
2018-Dec-09 11:30N 52°28' E 001°45'0 0.0
2018-Dec-09 10:57N 52°28' E 001°45'0 0.0
2018-Dec-09 10:30N 52°28' E 001°45'0 0.0
2018-Dec-09 10:00N 52°28' E 001°45'0 0.0
2018-Dec-09 09:30N 52°28' E 001°45'0 0.0
2018-Dec-09 09:00N 52°28' E 001°45'0 0.0
2018-Dec-09 08:30N 52°28' E 001°45'0 0.0
2018-Dec-09 08:00N 52°28' E 001°45'0 0.0
2018-Dec-09 07:30N 52°28' E 001°45'0 0.0
2018-Dec-09 07:00N 52°28' E 001°45'0 0.0
2018-Dec-09 06:30N 52°28' E 001°45'0 0.0
2018-Dec-09 06:00N 52°28' E 001°45'0 0.0
2018-Dec-09 05:30N 52°28' E 001°45'0 0.0
2018-Dec-09 05:00N 52°28' E 001°45'0 0.0
2018-Dec-09 04:30N 52°28' E 001°45'0 0.0
2018-Dec-09 04:00N 52°28' E 001°45'0 0.0
2018-Dec-09 03:30N 52°28' E 001°45'0 0.0
2018-Dec-09 03:00N 52°28' E 001°45'0 0.0
2018-Dec-09 02:27N 52°28' E 001°45'0 0.0
2018-Dec-09 02:00N 52°28' E 001°45'0 0.0
2018-Dec-09 01:30N 52°28' E 001°45'0 0.0
2018-Dec-09 01:00N 52°28' E 001°45'0 0.0
2018-Dec-09 00:30N 52°28' E 001°45'0 0.0
2018-Dec-08 23:57N 52°28' E 001°45'0 0.0
2018-Dec-08 23:30N 52°28' E 001°45'0 0.0
2018-Dec-08 23:00N 52°28' E 001°45'0 0.0
2018-Dec-08 22:30N 52°28' E 001°45'0 0.0
2018-Dec-08 22:00N 52°28' E 001°45'0 0.0
2018-Dec-08 21:30N 52°28' E 001°45'0 0.0
2018-Dec-08 21:00N 52°28' E 001°45'0 0.0
2018-Dec-08 20:30N 52°28' E 001°45'0 0.0
2018-Dec-08 20:00N 52°28' E 001°45'0 0.0
2018-Dec-08 19:30N 52°28' E 001°45'0 0.0
2018-Dec-08 19:00N 52°28' E 001°45'0 0.0
2018-Dec-08 18:30N 52°28' E 001°45'0 0.0
2018-Dec-08 18:00N 52°28' E 001°45'0 0.0
2018-Dec-08 17:30N 52°28' E 001°45'0 0.0
2018-Dec-08 17:00N 52°28' E 001°45'0 0.0
2018-Dec-08 16:30N 52°28' E 001°45'0 0.0
2018-Dec-08 16:00N 52°28' E 001°45'0 0.0
2018-Dec-08 15:30N 52°28' E 001°45'0 0.0
2018-Dec-08 15:00N 52°28' E 001°45'0 0.0
2018-Dec-08 14:30N 52°28' E 001°45'0 0.0
2018-Dec-08 14:00N 52°28' E 001°45'0 0.0
2018-Dec-08 13:30N 52°28' E 001°45'0 0.0
2018-Dec-08 13:00N 52°28' E 001°45'0 0.0
2018-Dec-08 12:30N 52°28' E 001°45'0 0.0
2018-Dec-08 12:00N 52°28' E 001°45'0 0.0
2018-Dec-08 11:30N 52°28' E 001°45'0 0.0
2018-Dec-08 11:00N 52°28' E 001°45'0 0.0
2018-Dec-08 10:30N 52°28' E 001°45'0 0.0
2018-Dec-08 10:00N 52°28' E 001°45'0 0.0
2018-Dec-08 09:30N 52°28' E 001°45'0 0.0
2018-Dec-08 09:00N 52°28' E 001°45'0 0.0
2018-Dec-08 08:30N 52°28' E 001°45'0 0.0
2018-Dec-08 08:00N 52°28' E 001°45'0 0.0
2018-Dec-08 07:30N 52°28' E 001°45'0 0.0
2018-Dec-08 07:00N 52°28' E 001°45'0 0.0
2018-Dec-08 06:30N 52°28' E 001°45'0 0.0
2018-Dec-08 06:00N 52°28' E 001°45'0 0.0
2018-Dec-08 05:30N 52°28' E 001°45'0 0.0
2018-Dec-08 05:00N 52°28' E 001°45'0 0.0
2018-Dec-08 04:30N 52°28' E 001°45'0 0.0
2018-Dec-08 04:00N 52°28' E 001°45'0 0.0
2018-Dec-08 03:30N 52°28' E 001°45'0 0.0
2018-Dec-08 02:57N 52°28' E 001°45'0 0.0
2018-Dec-08 02:30N 52°28' E 001°45'0 0.0
2018-Dec-08 02:00N 52°28' E 001°45'0 0.0
2018-Dec-08 01:30N 52°28' E 001°45'0 0.0
2018-Dec-08 01:00N 52°28' E 001°45'0 0.0
2018-Dec-08 00:30N 52°28' E 001°45'0 0.0
2018-Dec-07 23:30N 52°28' E 001°45'0 0.0
2018-Dec-07 23:00N 52°28' E 001°45'0 0.0
2018-Dec-07 22:30N 52°28' E 001°45'0 0.0
2018-Dec-07 22:00N 52°28' E 001°45'0 0.0
2018-Dec-07 21:30N 52°28' E 001°45'0 0.0
2018-Dec-07 21:00N 52°28' E 001°45'0 0.0
2018-Dec-07 20:30N 52°28' E 001°45'0 0.0
2018-Dec-07 20:00N 52°28' E 001°45'0 0.0
2018-Dec-07 19:30N 52°28' E 001°45'0 0.0
2018-Dec-07 19:00N 52°28' E 001°45'0 0.0
2018-Dec-07 18:30N 52°28' E 001°45'0 0.0
2018-Dec-07 18:00N 52°28' E 001°45'0 0.0
2018-Dec-07 17:27N 52°28' E 001°45'0 0.0
2018-Dec-07 17:00N 52°28' E 001°45'0 0.0
2018-Dec-07 16:30N 52°28' E 001°45'0 0.0
2018-Dec-07 16:00N 52°28' E 001°45'0 0.0
2018-Dec-07 15:30N 52°28' E 001°45'0 0.0
2018-Dec-07 15:00N 52°28' E 001°45'0 0.0
2018-Dec-07 14:30N 52°28' E 001°45'0 0.0
2018-Dec-07 14:00N 52°28' E 001°45'0 0.0
2018-Dec-07 13:30N 52°28' E 001°45'0 0.0
2018-Dec-07 13:00N 52°28' E 001°45'0 0.0
2018-Dec-07 12:30N 52°28' E 001°45'0 0.0
2018-Dec-07 12:00N 52°28' E 001°45'0 0.0
2018-Dec-07 11:30N 52°28' E 001°45'0 0.0
2018-Dec-07 11:00N 52°28' E 001°45'0 0.0
2018-Dec-07 10:30N 52°28' E 001°45'0 0.0
2018-Dec-07 10:00N 52°28' E 001°45'0 0.0
2018-Dec-07 09:30N 52°28' E 001°45'0 0.0
2018-Dec-07 09:00N 52°28' E 001°45'0 0.0
2018-Dec-07 08:30N 52°28' E 001°45'0 0.0
2018-Dec-07 08:00N 52°28' E 001°45'0 0.0
2018-Dec-07 07:30N 52°28' E 001°45'0 0.0
2018-Dec-07 07:00N 52°28' E 001°45'0 0.0
2018-Dec-07 06:30N 52°28' E 001°45'0 0.0
2018-Dec-07 06:00N 52°28' E 001°45'0 0.0
2018-Dec-07 05:30N 52°28' E 001°45'0 0.0
2018-Dec-07 05:00N 52°28' E 001°45'0 0.0
2018-Dec-07 04:30N 52°28' E 001°45'0 0.0
2018-Dec-07 04:00N 52°28' E 001°45'0 0.0
2018-Dec-07 03:30N 52°28' E 001°45'0 0.0
2018-Dec-07 02:30N 52°28' E 001°45'0 0.0
2018-Dec-07 02:00N 52°28' E 001°45'0 0.0
2018-Dec-07 01:30N 52°28' E 001°45'0 0.0
2018-Dec-07 01:00N 52°28' E 001°45'0 0.0
2018-Dec-07 00:30N 52°28' E 001°45'0 0.0
2018-Dec-07 00:00N 52°28' E 001°45'0 0.0
2018-Dec-06 23:30N 52°28' E 001°45'0 0.0
2018-Dec-06 23:00N 52°28' E 001°45'0 0.0
2018-Dec-06 22:30N 52°28' E 001°45'0 0.0
2018-Dec-06 22:00N 52°28' E 001°45'0 0.0
2018-Dec-06 21:30N 52°28' E 001°45'0 0.0
2018-Dec-06 21:00N 52°28' E 001°45'0 0.0
2018-Dec-06 20:30N 52°28' E 001°45'0 0.0
2018-Dec-06 20:00N 52°28' E 001°45'0 0.0
2018-Dec-06 19:30N 52°28' E 001°45'0 0.0
2018-Dec-06 19:00N 52°28' E 001°45'0 0.0
2018-Dec-06 18:30N 52°28' E 001°45'0 0.0
2018-Dec-06 17:57N 52°28' E 001°45'0 0.0
2018-Dec-06 17:30N 52°28' E 001°45'0 0.0
2018-Dec-06 17:00N 52°28' E 001°45'0 0.0
2018-Dec-06 16:30N 52°28' E 001°45'0 0.0
2018-Dec-06 16:00N 52°28' E 001°45'0 0.0
2018-Dec-06 15:30N 52°28' E 001°45'0 0.0
2018-Dec-06 15:00N 52°28' E 001°45'0 0.0
2018-Dec-06 14:30N 52°28' E 001°45'0 0.0
2018-Dec-06 14:00N 52°28' E 001°45'0 0.0
2018-Dec-06 13:27N 52°28' E 001°45'0 0.0
2018-Dec-06 13:00N 52°28' E 001°45'0 0.0
2018-Dec-06 12:30N 52°28' E 001°45'0 0.0
2018-Dec-06 12:00N 52°28' E 001°45'0 0.0
2018-Dec-06 11:30N 52°28' E 001°45'0 0.0
2018-Dec-06 10:57N 52°28' E 001°45'0 0.0
2018-Dec-06 10:30N 52°28' E 001°45'0 0.0
2018-Dec-06 10:00N 52°28' E 001°45'0 0.0
2018-Dec-06 09:30N 52°28' E 001°45'0 0.0
2018-Dec-06 09:00N 52°28' E 001°45'0 0.0
2018-Dec-06 08:30N 52°28' E 001°45'0 0.0
2018-Dec-06 08:00N 52°28' E 001°45'0 0.0
2018-Dec-06 07:30N 52°28' E 001°45'0 0.0
2018-Dec-06 07:00N 52°28' E 001°45'0 0.0
2018-Dec-06 06:30N 52°28' E 001°45'0 0.0
2018-Dec-06 06:00N 52°28' E 001°45'0 0.0
2018-Dec-06 05:30N 52°28' E 001°45'0 0.0
2018-Dec-06 05:00N 52°28' E 001°45'0 0.0
2018-Dec-06 04:30N 52°28' E 001°45'0 0.0
2018-Dec-06 04:00N 52°28' E 001°45'0 0.0
2018-Dec-06 03:30N 52°28' E 001°45'0 0.0
2018-Dec-06 02:30N 52°28' E 001°45'0 0.0
2018-Dec-06 02:00N 52°28' E 001°45'0 0.0
2018-Dec-06 01:30N 52°28' E 001°45'0 0.0
2018-Dec-06 01:00N 52°28' E 001°45'0 0.0
2018-Dec-06 00:30N 52°28' E 001°45'0 0.0
2018-Dec-06 00:00N 52°28' E 001°45'0 0.0
2018-Dec-05 23:30N 52°28' E 001°45'0 0.0
2018-Dec-05 23:00N 52°28' E 001°45'0 0.0
2018-Dec-05 22:30N 52°28' E 001°45'0 0.0
2018-Dec-05 22:00N 52°28' E 001°45'0 0.0
2018-Dec-05 21:30N 52°28' E 001°45'0 0.0
2018-Dec-05 21:00N 52°28' E 001°45'0 0.0
2018-Dec-05 20:30N 52°28' E 001°45'0 0.0
2018-Dec-05 20:00N 52°28' E 001°45'0 0.0
2018-Dec-05 19:30N 52°28' E 001°45'0 0.0
2018-Dec-05 19:00N 52°28' E 001°45'0 0.0
2018-Dec-05 18:30N 52°28' E 001°45'0 0.0
2018-Dec-05 18:00N 52°28' E 001°45'0 0.0
2018-Dec-05 17:30N 52°28' E 001°45'0 0.0
2018-Dec-05 17:00N 52°28' E 001°45'0 0.0
2018-Dec-05 16:30N 52°28' E 001°45'0 0.0
2018-Dec-05 15:57N 52°28' E 001°45'0 0.0
2018-Dec-05 15:30N 52°28' E 001°45'0 0.0
2018-Dec-05 15:00N 52°28' E 001°45'0 0.0
2018-Dec-05 14:30N 52°28' E 001°45'0 0.0
2018-Dec-05 13:57N 52°28' E 001°45'0 0.0
2018-Dec-05 13:30N 52°28' E 001°45'0 0.0
2018-Dec-05 08:22N 52°28' E 001°45'0 0.0
2018-Dec-05 07:58N 52°28' E 001°45'0 0.0
2018-Dec-05 07:28N 52°28' E 001°45'0 0.0
2018-Dec-05 07:01N 52°28' E 001°45'1 1.6
2018-Dec-05 06:31N 52°28' E 001°46'2 3.1
2018-Dec-05 06:00N 52°30' E 001°47'4 8.6
2018-Dec-05 05:30N 52°26' E 001°48'1 1.3
2018-Dec-05 05:01N 52°25' E 001°49'1 1.6
2018-Dec-05 04:31N 52°26' E 001°50'0 0.9
2018-Dec-05 04:01N 52°26' E 001°51'3 5.7
2018-Dec-05 03:31N 52°26' E 001°55'3 5.6
2018-Dec-05 03:01N 52°27' E 001°60'3 5.2
2018-Dec-05 02:30N 52°27' E 002°04'3 5.3
2018-Dec-05 02:01N 52°27' E 002°08'3 5.0
2018-Dec-05 01:30N 52°27' E 002°12'2 4.6
2018-Dec-05 01:01N 52°28' E 002°16'3 5.1
2018-Dec-05 00:30N 52°28' E 002°20'3 5.1
2018-Dec-05 00:00N 52°28' E 002°25'3 5.3
2018-Dec-04 23:30N 52°28' E 002°29'3 5.5
2018-Dec-04 23:00N 52°28' E 002°33'3 5.2
2018-Dec-04 22:25N 52°28' E 002°38'2 5.3
2018-Dec-04 22:00N 52°28' E 002°42'3 5.3
2018-Dec-04 21:30N 52°28' E 002°46'62 8.6
2018-Dec-04 14:23N 53°03' E 004°11'411.5
2018-Dec-04 14:00N 53°06' E 004°16'711.2
2018-Dec-04 13:20N 53°11' E 004°25'2711.2
2018-Dec-04 10:54N 53°32' E 004°55'10210.8
2018-Dec-04 01:25N 54°02' E 007°40'410.1
2018-Dec-04 00:59N 54°02' E 007°47'510.4
2018-Dec-04 00:30N 54°01' E 007°56'611.4
2018-Dec-04 00:00N 54°01' E 008°06'611.1
2018-Dec-03 23:30N 54°00' E 008°15'5 9.8
2018-Dec-03 23:00N 53°59' E 008°23'713.4
2018-Dec-03 22:31N 53°58' E 008°34'611.5
2018-Dec-03 22:00N 53°54' E 008°42'510.8
2018-Dec-03 21:30N 53°51' E 008°48'510.7
2018-Dec-03 21:00N 53°51' E 008°57'510.3
2018-Dec-03 20:31N 53°53' E 009°05'2 4.5
2018-Dec-03 20:01N 53°54' E 009°09'0 0.7
2018-Dec-03 19:30N 53°54' E 009°09'2 4.4
2018-Dec-03 19:00N 53°55' E 009°12'4 8.1
2018-Dec-03 18:30N 53°59' E 009°16'4 8.2
2018-Dec-03 18:00N 54°03' E 009°18'4 8.5
2018-Dec-03 17:30N 54°07' E 009°20'4 7.5
2018-Dec-03 17:00N 54°10' E 009°24'4 8.4
2018-Dec-03 16:31N 54°11' E 009°30'4 8.3
2018-Dec-03 16:01N 54°14' E 009°36'4 7.6
2018-Dec-03 15:30N 54°17' E 009°39'4 7.6
2018-Dec-03 15:01N 54°20' E 009°43'4 8.8
2018-Dec-03 14:30N 54°22' E 009°50'4 7.3
2018-Dec-03 14:00N 54°20' E 009°56'4 7.2
2018-Dec-03 13:30N 54°22' E 010°02'3 4.6
2018-Dec-03 12:53N 54°22' E 010°07'0 0.0
2018-Dec-03 12:23N 54°22' E 010°07'0 0.0
2018-Dec-03 11:53N 54°22' E 010°07'0 0.0
2018-Dec-03 11:23N 54°22' E 010°07'0 0.0
2018-Dec-03 10:53N 54°22' E 010°07'0 0.0
2018-Dec-03 10:26N 54°22' E 010°07'0 0.0
2018-Dec-03 09:56N 54°22' E 010°07'0 0.0
2018-Dec-03 09:26N 54°22' E 010°07'0 0.0
2018-Dec-03 08:44N 54°22' E 010°07'0 0.0
2018-Dec-03 08:23N 54°22' E 010°07'0 0.0
2018-Dec-03 07:59N 54°22' E 010°07'0 0.0
2018-Dec-03 07:29N 54°22' E 010°07'0 0.0
2018-Dec-03 06:59N 54°22' E 010°07'0 0.0
2018-Dec-03 06:29N 54°22' E 010°07'0 0.0
2018-Dec-03 05:59N 54°22' E 010°07'0 0.0
2018-Dec-03 05:29N 54°22' E 010°07'0 0.0
2018-Dec-03 04:59N 54°22' E 010°07'0 0.0
2018-Dec-03 04:29N 54°22' E 010°07'0 0.0
2018-Dec-03 03:59N 54°22' E 010°07'0 0.0
2018-Dec-03 03:29N 54°22' E 010°07'0 0.0
2018-Dec-03 02:59N 54°22' E 010°07'0 0.0
2018-Dec-03 02:29N 54°22' E 010°07'0 0.0
2018-Dec-03 01:50N 54°22' E 010°07'0 0.0
2018-Dec-03 01:20N 54°22' E 010°07'0 0.0
2018-Dec-03 00:50N 54°22' E 010°07'0 0.0
2018-Dec-03 00:23N 54°22' E 010°07'0 0.0
2018-Dec-02 23:53N 54°22' E 010°07'0 0.0
2018-Dec-02 23:23N 54°22' E 010°07'0 0.0
2018-Dec-02 22:53N 54°22' E 010°07'0 0.0
2018-Dec-02 22:23N 54°22' E 010°07'0 0.0
2018-Dec-02 21:53N 54°22' E 010°07'0 0.0
2018-Dec-02 21:23N 54°22' E 010°07'0 0.0
2018-Dec-02 20:56N 54°22' E 010°07'0 0.0
2018-Dec-02 20:26N 54°22' E 010°07'0 0.0
2018-Dec-02 19:53N 54°22' E 010°07'0 0.0
2018-Dec-02 19:26N 54°22' E 010°07'0 0.0
2018-Dec-02 18:56N 54°22' E 010°07'0 0.0
2018-Dec-02 18:26N 54°22' E 010°07'0 0.0
2018-Dec-02 17:59N 54°22' E 010°07'0 0.0
2018-Dec-02 17:29N 54°22' E 010°07'0 0.0
2018-Dec-02 16:59N 54°22' E 010°07'0 0.0
2018-Dec-02 16:29N 54°22' E 010°07'0 0.0
2018-Dec-02 15:59N 54°22' E 010°07'0 0.0
2018-Dec-02 15:29N 54°22' E 010°07'0 0.0
2018-Dec-02 14:59N 54°22' E 010°07'0 0.0
2018-Dec-02 14:29N 54°22' E 010°07'0 0.0
2018-Dec-02 13:59N 54°22' E 010°07'0 0.0
2018-Dec-02 13:29N 54°22' E 010°07'0 0.0
2018-Dec-02 12:59N 54°22' E 010°07'0 0.0
2018-Dec-02 12:29N 54°22' E 010°07'0 0.0
2018-Dec-02 11:50N 54°22' E 010°07'0 0.0
2018-Dec-02 11:17N 54°22' E 010°07'0 0.0
2018-Dec-02 10:50N 54°22' E 010°07'0 0.0
2018-Dec-02 10:23N 54°22' E 010°07'0 0.0
2018-Dec-02 09:53N 54°22' E 010°07'0 0.0
2018-Dec-02 09:23N 54°22' E 010°07'0 0.0
2018-Dec-02 08:53N 54°22' E 010°07'0 0.0
2018-Dec-02 08:23N 54°22' E 010°07'0 0.0
2018-Dec-02 07:53N 54°22' E 010°07'0 0.0
2018-Dec-02 07:26N 54°22' E 010°07'0 0.0
2018-Dec-02 06:56N 54°22' E 010°07'0 0.0
2018-Dec-02 06:26N 54°22' E 010°07'0 0.0
2018-Dec-02 05:56N 54°22' E 010°07'0 0.0
2018-Dec-02 05:26N 54°22' E 010°07'0 0.0
2018-Dec-02 04:56N 54°22' E 010°07'0 0.0
2018-Dec-02 04:26N 54°22' E 010°07'0 0.0
2018-Dec-02 03:59N 54°22' E 010°07'0 0.0
2018-Dec-02 03:29N 54°22' E 010°07'0 0.0
2018-Dec-02 02:59N 54°22' E 010°07'0 0.0
2018-Dec-02 02:26N 54°22' E 010°07'0 0.0
2018-Dec-02 01:59N 54°22' E 010°07'0 0.0
2018-Dec-02 01:26N 54°22' E 010°07'0 0.0
2018-Dec-02 00:59N 54°22' E 010°07'0 0.0
2018-Dec-02 00:29N 54°22' E 010°07'0 0.0
2018-Dec-01 23:59N 54°22' E 010°07'0 0.0
2018-Dec-01 23:29N 54°22' E 010°07'0 0.0
2018-Dec-01 22:59N 54°22' E 010°07'0 0.0
2018-Dec-01 22:29N 54°22' E 010°07'0 0.0
2018-Dec-01 21:50N 54°22' E 010°07'0 0.0
2018-Dec-01 21:20N 54°22' E 010°07'0 0.0
2018-Dec-01 20:50N 54°22' E 010°07'0 0.0
2018-Dec-01 20:20N 54°22' E 010°07'0 0.0
2018-Dec-01 19:53N 54°22' E 010°07'0 0.0
2018-Dec-01 19:23N 54°22' E 010°07'0 0.0
2018-Dec-01 18:53N 54°22' E 010°07'0 0.0
2018-Dec-01 18:23N 54°22' E 010°07'0 0.0
2018-Dec-01 17:53N 54°22' E 010°07'0 0.0
2018-Dec-01 17:26N 54°22' E 010°07'0 0.0
2018-Dec-01 16:56N 54°22' E 010°07'0 0.0
2018-Dec-01 16:26N 54°22' E 010°07'0 0.0
2018-Dec-01 15:56N 54°22' E 010°07'0 0.0
2018-Dec-01 15:26N 54°22' E 010°07'0 0.0
2018-Dec-01 14:56N 54°22' E 010°07'0 0.0
2018-Dec-01 14:29N 54°22' E 010°07'  
Track history (hours):
 
Tides and Currents Weather Stations Pressure Air Temp Water Temp Dewpoint Dewpoint Depression Visibility Wind Speed Wind Dir Waves Ship Positions

Oceanographic research ship CEFAS Endeavour (UK)

Detailed information on ship capabilities available from University of Delaware's Ocean Information Center.

Last reported at 2018-Dec-11 14:04 UTC. Time now 2018-Dec-13 15:22 UTC.
Position N 55°27' W 001°07'.

Length 74 m; draft 5.3 m.

Type: Ship. MMSI: 235005270.

Date/timePositionNaut miles runAvg speedWind from/ knotsBaromVisibWave heightAir tempDewpointWater temp
2018-Dec-11 14:04N 55°27' W 001°07'0 0.0
2018-Dec-11 13:54N 55°27' W 001°07'0 0.1
2018-Dec-11 13:02N 55°27' W 001°07'2 0.3
2018-Dec-11 07:23N 55°26' W 001°06'66 8.8
2018-Dec-10 23:55N 54°31' W 000°03'612.3
2018-Dec-10 23:26N 54°26' E 000°02'512.3
2018-Dec-10 23:00N 54°21' E 000°07'612.1
2018-Dec-10 22:30N 54°16' E 000°13'611.9
2018-Dec-10 22:00N 54°11' E 000°18'611.4
2018-Dec-10 21:30N 54°06' E 000°23'611.1
2018-Dec-10 21:00N 54°02' E 000°28'510.6
2018-Dec-10 20:30N 53°57' E 000°33'710.1
2018-Dec-10 19:47N 53°51' E 000°40'30 8.8
2018-Dec-10 16:23N 53°26' E 001°06'4 9.9
2018-Dec-10 16:00N 53°22' E 001°09'611.5
2018-Dec-10 15:30N 53°17' E 001°14'612.5
2018-Dec-10 15:00N 53°12' E 001°19'612.8
2018-Dec-10 14:31N 53°06' E 001°24'612.6
2018-Dec-10 14:00N 53°01' E 001°30'612.7
2018-Dec-10 13:30N 52°56' E 001°37'612.2
2018-Dec-10 13:00N 52°51' E 001°43'611.4
2018-Dec-10 12:30N 52°46' E 001°47'511.0
2018-Dec-10 12:01N 52°41' E 001°50'5 9.7
2018-Dec-10 11:30N 52°36' E 001°52'510.1
2018-Dec-10 11:00N 52°31' E 001°51'5 9.5
2018-Dec-10 10:31N 52°27' E 001°49'4 7.5
2018-Dec-10 10:01N 52°30' E 001°46'2 4.1
2018-Dec-10 09:30N 52°28' E 001°45'0 0.5
2018-Dec-10 09:00N 52°28' E 001°45'0 0.0
2018-Dec-09 23:51N 52°28' E 001°45'0 0.0
2018-Dec-09 23:30N 52°28' E 001°45'0 0.0
2018-Dec-09 23:00N 52°28' E 001°45'0 0.0
2018-Dec-09 22:30N 52°28' E 001°45'0 0.0
2018-Dec-09 22:00N 52°28' E 001°45'0 0.0
2018-Dec-09 21:30N 52°28' E 001°45'0 0.0
2018-Dec-09 21:00N 52°28' E 001°45'0 0.0
2018-Dec-09 20:30N 52°28' E 001°45'0 0.0
2018-Dec-09 19:57N 52°28' E 001°45'0 0.0
2018-Dec-09 19:30N 52°28' E 001°45'0 0.0
2018-Dec-09 19:00N 52°28' E 001°45'0 0.0
2018-Dec-09 18:27N 52°28' E 001°45'0 0.0
2018-Dec-09 18:00N 52°28' E 001°45'0 0.0
2018-Dec-09 17:30N 52°28' E 001°45'0 0.0
2018-Dec-09 16:57N 52°28' E 001°45'0 0.0
2018-Dec-09 16:30N 52°28' E 001°45'0 0.0
2018-Dec-09 16:00N 52°28' E 001°45'0 0.0
2018-Dec-09 15:30N 52°28' E 001°45'0 0.0
2018-Dec-09 15:00N 52°28' E 001°45'0 0.0
2018-Dec-09 14:30N 52°28' E 001°45'0 0.0
2018-Dec-09 14:00N 52°28' E 001°45'0 0.0
2018-Dec-09 13:30N 52°28' E 001°45'0 0.0
2018-Dec-09 13:00N 52°28' E 001°45'0 0.0
2018-Dec-09 12:30N 52°28' E 001°45'0 0.0
2018-Dec-09 12:00N 52°28' E 001°45'0 0.0
2018-Dec-09 11:30N 52°28' E 001°45'0 0.0
2018-Dec-09 10:57N 52°28' E 001°45'0 0.0
2018-Dec-09 10:30N 52°28' E 001°45'0 0.0
2018-Dec-09 10:00N 52°28' E 001°45'0 0.0
2018-Dec-09 09:30N 52°28' E 001°45'0 0.0
2018-Dec-09 09:00N 52°28' E 001°45'0 0.0
2018-Dec-09 08:30N 52°28' E 001°45'0 0.0
2018-Dec-09 08:00N 52°28' E 001°45'0 0.0
2018-Dec-09 07:30N 52°28' E 001°45'0 0.0
2018-Dec-09 07:00N 52°28' E 001°45'0 0.0
2018-Dec-09 06:30N 52°28' E 001°45'0 0.0
2018-Dec-09 06:00N 52°28' E 001°45'0 0.0
2018-Dec-09 05:30N 52°28' E 001°45'0 0.0
2018-Dec-09 05:00N 52°28' E 001°45'0 0.0
2018-Dec-09 04:30N 52°28' E 001°45'0 0.0
2018-Dec-09 04:00N 52°28' E 001°45'0 0.0
2018-Dec-09 03:30N 52°28' E 001°45'0 0.0
2018-Dec-09 03:00N 52°28' E 001°45'0 0.0
2018-Dec-09 02:27N 52°28' E 001°45'0 0.0
2018-Dec-09 02:00N 52°28' E 001°45'0 0.0
2018-Dec-09 01:30N 52°28' E 001°45'0 0.0
2018-Dec-09 01:00N 52°28' E 001°45'0 0.0
2018-Dec-09 00:30N 52°28' E 001°45'0 0.0
2018-Dec-08 23:57N 52°28' E 001°45'0 0.0
2018-Dec-08 23:30N 52°28' E 001°45'0 0.0
2018-Dec-08 23:00N 52°28' E 001°45'0 0.0
2018-Dec-08 22:30N 52°28' E 001°45'0 0.0
2018-Dec-08 22:00N 52°28' E 001°45'0 0.0
2018-Dec-08 21:30N 52°28' E 001°45'0 0.0
2018-Dec-08 21:00N 52°28' E 001°45'0 0.0
2018-Dec-08 20:30N 52°28' E 001°45'0 0.0
2018-Dec-08 20:00N 52°28' E 001°45'0 0.0
2018-Dec-08 19:30N 52°28' E 001°45'0 0.0
2018-Dec-08 19:00N 52°28' E 001°45'0 0.0
2018-Dec-08 18:30N 52°28' E 001°45'0 0.0
2018-Dec-08 18:00N 52°28' E 001°45'0 0.0
2018-Dec-08 17:30N 52°28' E 001°45'0 0.0
2018-Dec-08 17:00N 52°28' E 001°45'0 0.0
2018-Dec-08 16:30N 52°28' E 001°45'0 0.0
2018-Dec-08 16:00N 52°28' E 001°45'0 0.0
2018-Dec-08 15:30N 52°28' E 001°45'0 0.0
2018-Dec-08 15:00N 52°28' E 001°45'0 0.0
2018-Dec-08 14:30N 52°28' E 001°45'0 0.0
2018-Dec-08 14:00N 52°28' E 001°45'0 0.0
2018-Dec-08 13:30N 52°28' E 001°45'0 0.0
2018-Dec-08 13:00N 52°28' E 001°45'0 0.0
2018-Dec-08 12:30N 52°28' E 001°45'0 0.0
2018-Dec-08 12:00N 52°28' E 001°45'0 0.0
2018-Dec-08 11:30N 52°28' E 001°45'0 0.0
2018-Dec-08 11:00N 52°28' E 001°45'0 0.0
2018-Dec-08 10:30N 52°28' E 001°45'0 0.0
2018-Dec-08 10:00N 52°28' E 001°45'0 0.0
2018-Dec-08 09:30N 52°28' E 001°45'0 0.0
2018-Dec-08 09:00N 52°28' E 001°45'0 0.0
2018-Dec-08 08:30N 52°28' E 001°45'0 0.0
2018-Dec-08 08:00N 52°28' E 001°45'0 0.0
2018-Dec-08 07:30N 52°28' E 001°45'0 0.0
2018-Dec-08 07:00N 52°28' E 001°45'0 0.0
2018-Dec-08 06:30N 52°28' E 001°45'0 0.0
2018-Dec-08 06:00N 52°28' E 001°45'0 0.0
2018-Dec-08 05:30N 52°28' E 001°45'0 0.0
2018-Dec-08 05:00N 52°28' E 001°45'0 0.0
2018-Dec-08 04:30N 52°28' E 001°45'0 0.0
2018-Dec-08 04:00N 52°28' E 001°45'0 0.0
2018-Dec-08 03:30N 52°28' E 001°45'0 0.0
2018-Dec-08 02:57N 52°28' E 001°45'0 0.0
2018-Dec-08 02:30N 52°28' E 001°45'0 0.0
2018-Dec-08 02:00N 52°28' E 001°45'0 0.0
2018-Dec-08 01:30N 52°28' E 001°45'0 0.0
2018-Dec-08 01:00N 52°28' E 001°45'0 0.0
2018-Dec-08 00:30N 52°28' E 001°45'0 0.0
2018-Dec-07 23:30N 52°28' E 001°45'0 0.0
2018-Dec-07 23:00N 52°28' E 001°45'0 0.0
2018-Dec-07 22:30N 52°28' E 001°45'0 0.0
2018-Dec-07 22:00N 52°28' E 001°45'0 0.0
2018-Dec-07 21:30N 52°28' E 001°45'0 0.0
2018-Dec-07 21:00N 52°28' E 001°45'0 0.0
2018-Dec-07 20:30N 52°28' E 001°45'0 0.0
2018-Dec-07 20:00N 52°28' E 001°45'0 0.0
2018-Dec-07 19:30N 52°28' E 001°45'0 0.0
2018-Dec-07 19:00N 52°28' E 001°45'0 0.0
2018-Dec-07 18:30N 52°28' E 001°45'0 0.0
2018-Dec-07 18:00N 52°28' E 001°45'0 0.0
2018-Dec-07 17:27N 52°28' E 001°45'0 0.0
2018-Dec-07 17:00N 52°28' E 001°45'0 0.0
2018-Dec-07 16:30N 52°28' E 001°45'0 0.0
2018-Dec-07 16:00N 52°28' E 001°45'0 0.0
2018-Dec-07 15:30N 52°28' E 001°45'0 0.0
2018-Dec-07 15:00N 52°28' E 001°45'0 0.0
2018-Dec-07 14:30N 52°28' E 001°45'0 0.0
2018-Dec-07 14:00N 52°28' E 001°45'0 0.0
2018-Dec-07 13:30N 52°28' E 001°45'0 0.0
2018-Dec-07 13:00N 52°28' E 001°45'0 0.0
2018-Dec-07 12:30N 52°28' E 001°45'0 0.0
2018-Dec-07 12:00N 52°28' E 001°45'0 0.0
2018-Dec-07 11:30N 52°28' E 001°45'0 0.0
2018-Dec-07 11:00N 52°28' E 001°45'0 0.0
2018-Dec-07 10:30N 52°28' E 001°45'0 0.0
2018-Dec-07 10:00N 52°28' E 001°45'0 0.0
2018-Dec-07 09:30N 52°28' E 001°45'0 0.0
2018-Dec-07 09:00N 52°28' E 001°45'0 0.0
2018-Dec-07 08:30N 52°28' E 001°45'0 0.0
2018-Dec-07 08:00N 52°28' E 001°45'0 0.0
2018-Dec-07 07:30N 52°28' E 001°45'0 0.0
2018-Dec-07 07:00N 52°28' E 001°45'0 0.0
2018-Dec-07 06:30N 52°28' E 001°45'0 0.0
2018-Dec-07 06:00N 52°28' E 001°45'0 0.0
2018-Dec-07 05:30N 52°28' E 001°45'0 0.0
2018-Dec-07 05:00N 52°28' E 001°45'0 0.0
2018-Dec-07 04:30N 52°28' E 001°45'0 0.0
2018-Dec-07 04:00N 52°28' E 001°45'0 0.0
2018-Dec-07 03:30N 52°28' E 001°45'0 0.0
2018-Dec-07 02:30N 52°28' E 001°45'0 0.0
2018-Dec-07 02:00N 52°28' E 001°45'0 0.0
2018-Dec-07 01:30N 52°28' E 001°45'0 0.0
2018-Dec-07 01:00N 52°28' E 001°45'0 0.0
2018-Dec-07 00:30N 52°28' E 001°45'0 0.0
2018-Dec-07 00:00N 52°28' E 001°45'0 0.0
2018-Dec-06 23:30N 52°28' E 001°45'0 0.0
2018-Dec-06 23:00N 52°28' E 001°45'0 0.0
2018-Dec-06 22:30N 52°28' E 001°45'0 0.0
2018-Dec-06 22:00N 52°28' E 001°45'0 0.0
2018-Dec-06 21:30N 52°28' E 001°45'0 0.0
2018-Dec-06 21:00N 52°28' E 001°45'0 0.0
2018-Dec-06 20:30N 52°28' E 001°45'0 0.0
2018-Dec-06 20:00N 52°28' E 001°45'0 0.0
2018-Dec-06 19:30N 52°28' E 001°45'0 0.0
2018-Dec-06 19:00N 52°28' E 001°45'0 0.0
2018-Dec-06 18:30N 52°28' E 001°45'0 0.0
2018-Dec-06 17:57N 52°28' E 001°45'0 0.0
2018-Dec-06 17:30N 52°28' E 001°45'0 0.0
2018-Dec-06 17:00N 52°28' E 001°45'0 0.0
2018-Dec-06 16:30N 52°28' E 001°45'0 0.0
2018-Dec-06 16:00N 52°28' E 001°45'0 0.0
2018-Dec-06 15:30N 52°28' E 001°45'0 0.0
2018-Dec-06 15:00N 52°28' E 001°45'0 0.0
2018-Dec-06 14:30N 52°28' E 001°45'0 0.0
2018-Dec-06 14:00N 52°28' E 001°45'0 0.0
2018-Dec-06 13:27N 52°28' E 001°45'0 0.0
2018-Dec-06 13:00N 52°28' E 001°45'0 0.0
2018-Dec-06 12:30N 52°28' E 001°45'0 0.0
2018-Dec-06 12:00N 52°28' E 001°45'0 0.0
2018-Dec-06 11:30N 52°28' E 001°45'0 0.0
2018-Dec-06 10:57N 52°28' E 001°45'0 0.0
2018-Dec-06 10:30N 52°28' E 001°45'0 0.0
2018-Dec-06 10:00N 52°28' E 001°45'0 0.0
2018-Dec-06 09:30N 52°28' E 001°45'0 0.0
2018-Dec-06 09:00N 52°28' E 001°45'0 0.0
2018-Dec-06 08:30N 52°28' E 001°45'0 0.0
2018-Dec-06 08:00N 52°28' E 001°45'0 0.0
2018-Dec-06 07:30N 52°28' E 001°45'0 0.0
2018-Dec-06 07:00N 52°28' E 001°45'0 0.0
2018-Dec-06 06:30N 52°28' E 001°45'0 0.0
2018-Dec-06 06:00N 52°28' E 001°45'0 0.0
2018-Dec-06 05:30N 52°28' E 001°45'0 0.0
2018-Dec-06 05:00N 52°28' E 001°45'0 0.0
2018-Dec-06 04:30N 52°28' E 001°45'0 0.0
2018-Dec-06 04:00N 52°28' E 001°45'0 0.0
2018-Dec-06 03:30N 52°28' E 001°45'0 0.0
2018-Dec-06 02:30N 52°28' E 001°45'0 0.0
2018-Dec-06 02:00N 52°28' E 001°45'0 0.0
2018-Dec-06 01:30N 52°28' E 001°45'0 0.0
2018-Dec-06 01:00N 52°28' E 001°45'0 0.0
2018-Dec-06 00:30N 52°28' E 001°45'0 0.0
2018-Dec-06 00:00N 52°28' E 001°45'0 0.0
2018-Dec-05 23:30N 52°28' E 001°45'0 0.0
2018-Dec-05 23:00N 52°28' E 001°45'0 0.0
2018-Dec-05 22:30N 52°28' E 001°45'0 0.0
2018-Dec-05 22:00N 52°28' E 001°45'0 0.0
2018-Dec-05 21:30N 52°28' E 001°45'0 0.0
2018-Dec-05 21:00N 52°28' E 001°45'0 0.0
2018-Dec-05 20:30N 52°28' E 001°45'0 0.0
2018-Dec-05 20:00N 52°28' E 001°45'0 0.0
2018-Dec-05 19:30N 52°28' E 001°45'0 0.0
2018-Dec-05 19:00N 52°28' E 001°45'0 0.0
2018-Dec-05 18:30N 52°28' E 001°45'0 0.0
2018-Dec-05 18:00N 52°28' E 001°45'0 0.0
2018-Dec-05 17:30N 52°28' E 001°45'0 0.0
2018-Dec-05 17:00N 52°28' E 001°45'0 0.0
2018-Dec-05 16:30N 52°28' E 001°45'0 0.0
2018-Dec-05 15:57N 52°28' E 001°45'0 0.0
2018-Dec-05 15:30N 52°28' E 001°45'0 0.0
2018-Dec-05 15:00N 52°28' E 001°45'0 0.0
2018-Dec-05 14:30N 52°28' E 001°45'0 0.0
2018-Dec-05 13:57N 52°28' E 001°45'0 0.0
2018-Dec-05 13:30N 52°28' E 001°45'0 0.0
2018-Dec-05 08:22N 52°28' E 001°45'0 0.0
2018-Dec-05 07:58N 52°28' E 001°45'0 0.0
2018-Dec-05 07:28N 52°28' E 001°45'0 0.0
2018-Dec-05 07:01N 52°28' E 001°45'1 1.6
2018-Dec-05 06:31N 52°28' E 001°46'2 3.1
2018-Dec-05 06:00N 52°30' E 001°47'4 8.6
2018-Dec-05 05:30N 52°26' E 001°48'1 1.3
2018-Dec-05 05:01N 52°25' E 001°49'1 1.6
2018-Dec-05 04:31N 52°26' E 001°50'0 0.9
2018-Dec-05 04:01N 52°26' E 001°51'3 5.7
2018-Dec-05 03:31N 52°26' E 001°55'3 5.6
2018-Dec-05 03:01N 52°27' E 001°60'3 5.2
2018-Dec-05 02:30N 52°27' E 002°04'3 5.3
2018-Dec-05 02:01N 52°27' E 002°08'3 5.0
2018-Dec-05 01:30N 52°27' E 002°12'2 4.6
2018-Dec-05 01:01N 52°28' E 002°16'3 5.1
2018-Dec-05 00:30N 52°28' E 002°20'3 5.1
2018-Dec-05 00:00N 52°28' E 002°25'3 5.3
2018-Dec-04 23:30N 52°28' E 002°29'3 5.5
2018-Dec-04 23:00N 52°28' E 002°33'3 5.2
2018-Dec-04 22:25N 52°28' E 002°38'2 5.3
2018-Dec-04 22:00N 52°28' E 002°42'3 5.3
2018-Dec-04 21:30N 52°28' E 002°46'62 8.6
2018-Dec-04 14:23N 53°03' E 004°11'411.5
2018-Dec-04 14:00N 53°06' E 004°16'711.2
2018-Dec-04 13:20N 53°11' E 004°25'2711.2
2018-Dec-04 10:54N 53°32' E 004°55'10210.8
2018-Dec-04 01:25N 54°02' E 007°40'410.1
2018-Dec-04 00:59N 54°02' E 007°47'510.4
2018-Dec-04 00:30N 54°01' E 007°56'611.4
2018-Dec-04 00:00N 54°01' E 008°06'611.1
2018-Dec-03 23:30N 54°00' E 008°15'5 9.8
2018-Dec-03 23:00N 53°59' E 008°23'713.4
2018-Dec-03 22:31N 53°58' E 008°34'611.5
2018-Dec-03 22:00N 53°54' E 008°42'510.8
2018-Dec-03 21:30N 53°51' E 008°48'510.7
2018-Dec-03 21:00N 53°51' E 008°57'510.3
2018-Dec-03 20:31N 53°53' E 009°05'2 4.5
2018-Dec-03 20:01N 53°54' E 009°09'0 0.7
2018-Dec-03 19:30N 53°54' E 009°09'2 4.4
2018-Dec-03 19:00N 53°55' E 009°12'4 8.1
2018-Dec-03 18:30N 53°59' E 009°16'4 8.2
2018-Dec-03 18:00N 54°03' E 009°18'4 8.5
2018-Dec-03 17:30N 54°07' E 009°20'4 7.5
2018-Dec-03 17:00N 54°10' E 009°24'4 8.4
2018-Dec-03 16:31N 54°11' E 009°30'4 8.3
2018-Dec-03 16:01N 54°14' E 009°36'4 7.6
2018-Dec-03 15:30N 54°17' E 009°39'4 7.6
2018-Dec-03 15:01N 54°20' E 009°43'4 8.8
2018-Dec-03 14:30N 54°22' E 009°50'4 7.3
2018-Dec-03 14:00N 54°20' E 009°56'4 7.2
2018-Dec-03 13:30N 54°22' E 010°02'3 4.6
2018-Dec-03 12:53N 54°22' E 010°07'0 0.0
2018-Dec-03 12:23N 54°22' E 010°07'0 0.0
2018-Dec-03 11:53N 54°22' E 010°07'0 0.0
2018-Dec-03 11:23N 54°22' E 010°07'0 0.0
2018-Dec-03 10:53N 54°22' E 010°07'0 0.0
2018-Dec-03 10:26N 54°22' E 010°07'0 0.0
2018-Dec-03 09:56N 54°22' E 010°07'0 0.0
2018-Dec-03 09:26N 54°22' E 010°07'0 0.0
2018-Dec-03 08:44N 54°22' E 010°07'0 0.0
2018-Dec-03 08:23N 54°22' E 010°07'0 0.0
2018-Dec-03 07:59N 54°22' E 010°07'0 0.0
2018-Dec-03 07:29N 54°22' E 010°07'0 0.0
2018-Dec-03 06:59N 54°22' E 010°07'0 0.0
2018-Dec-03 06:29N 54°22' E 010°07'0 0.0
2018-Dec-03 05:59N 54°22' E 010°07'0 0.0
2018-Dec-03 05:29N 54°22' E 010°07'0 0.0
2018-Dec-03 04:59N 54°22' E 010°07'0 0.0
2018-Dec-03 04:29N 54°22' E 010°07'0 0.0
2018-Dec-03 03:59N 54°22' E 010°07'0 0.0
2018-Dec-03 03:29N 54°22' E 010°07'0 0.0
2018-Dec-03 02:59N 54°22' E 010°07'0 0.0
2018-Dec-03 02:29N 54°22' E 010°07'0 0.0
2018-Dec-03 01:50N 54°22' E 010°07'0 0.0
2018-Dec-03 01:20N 54°22' E 010°07'0 0.0
2018-Dec-03 00:50N 54°22' E 010°07'0 0.0
2018-Dec-03 00:23N 54°22' E 010°07'0 0.0
2018-Dec-02 23:53N 54°22' E 010°07'0 0.0
2018-Dec-02 23:23N 54°22' E 010°07'0 0.0
2018-Dec-02 22:53N 54°22' E 010°07'0 0.0
2018-Dec-02 22:23N 54°22' E 010°07'0 0.0
2018-Dec-02 21:53N 54°22' E 010°07'0 0.0
2018-Dec-02 21:23N 54°22' E 010°07'0 0.0
2018-Dec-02 20:56N 54°22' E 010°07'0 0.0
2018-Dec-02 20:26N 54°22' E 010°07'0 0.0
2018-Dec-02 19:53N 54°22' E 010°07'0 0.0
2018-Dec-02 19:26N 54°22' E 010°07'0 0.0
2018-Dec-02 18:56N 54°22' E 010°07'0 0.0
2018-Dec-02 18:26N 54°22' E 010°07'0 0.0
2018-Dec-02 17:59N 54°22' E 010°07'0 0.0
2018-Dec-02 17:29N 54°22' E 010°07'0 0.0
2018-Dec-02 16:59N 54°22' E 010°07'0 0.0
2018-Dec-02 16:29N 54°22' E 010°07'0 0.0
2018-Dec-02 15:59N 54°22' E 010°07'0 0.0
2018-Dec-02 15:29N 54°22' E 010°07'0 0.0
2018-Dec-02 14:59N 54°22' E 010°07'0 0.0
2018-Dec-02 14:29N 54°22' E 010°07'0 0.0
2018-Dec-02 13:59N 54°22' E 010°07'0 0.0
2018-Dec-02 13:29N 54°22' E 010°07'0 0.0
2018-Dec-02 12:59N 54°22' E 010°07'0 0.0
2018-Dec-02 12:29N 54°22' E 010°07'0 0.0
2018-Dec-02 11:50N 54°22' E 010°07'0 0.0
2018-Dec-02 11:17N 54°22' E 010°07'0 0.0
2018-Dec-02 10:50N 54°22' E 010°07'0 0.0
2018-Dec-02 10:23N 54°22' E 010°07'0 0.0
2018-Dec-02 09:53N 54°22' E 010°07'0 0.0
2018-Dec-02 09:23N 54°22' E 010°07'0 0.0
2018-Dec-02 08:53N 54°22' E 010°07'0 0.0
2018-Dec-02 08:23N 54°22' E 010°07'0 0.0
2018-Dec-02 07:53N 54°22' E 010°07'0 0.0
2018-Dec-02 07:26N 54°22' E 010°07'0 0.0
2018-Dec-02 06:56N 54°22' E 010°07'0 0.0
2018-Dec-02 06:26N 54°22' E 010°07'0 0.0
2018-Dec-02 05:56N 54°22' E 010°07'0 0.0
2018-Dec-02 05:26N 54°22' E 010°07'0 0.0
2018-Dec-02 04:56N 54°22' E 010°07'0 0.0
2018-Dec-02 04:26N 54°22' E 010°07'0 0.0
2018-Dec-02 03:59N 54°22' E 010°07'0 0.0
2018-Dec-02 03:29N 54°22' E 010°07'0 0.0
2018-Dec-02 02:59N 54°22' E 010°07'0 0.0
2018-Dec-02 02:26N 54°22' E 010°07'0 0.0
2018-Dec-02 01:59N 54°22' E 010°07'0 0.0
2018-Dec-02 01:26N 54°22' E 010°07'0 0.0
2018-Dec-02 00:59N 54°22' E 010°07'0 0.0
2018-Dec-02 00:29N 54°22' E 010°07'0 0.0
2018-Dec-01 23:59N 54°22' E 010°07'0 0.0
2018-Dec-01 23:29N 54°22' E 010°07'0 0.0
2018-Dec-01 22:59N 54°22' E 010°07'0 0.0
2018-Dec-01 22:29N 54°22' E 010°07'0 0.0
2018-Dec-01 21:50N 54°22' E 010°07'0 0.0
2018-Dec-01 21:20N 54°22' E 010°07'0 0.0
2018-Dec-01 20:50N 54°22' E 010°07'0 0.0
2018-Dec-01 20:20N 54°22' E 010°07'0 0.0
2018-Dec-01 19:53N 54°22' E 010°07'0 0.0
2018-Dec-01 19:23N 54°22' E 010°07'0 0.0
2018-Dec-01 18:53N 54°22' E 010°07'0 0.0
2018-Dec-01 18:23N 54°22' E 010°07'0 0.0
2018-Dec-01 17:53N 54°22' E 010°07'0 0.0
2018-Dec-01 17:26N 54°22' E 010°07'0 0.0
2018-Dec-01 16:56N 54°22' E 010°07'0 0.0
2018-Dec-01 16:26N 54°22' E 010°07'0 0.0
2018-Dec-01 15:56N 54°22' E 010°07'0 0.0
2018-Dec-01 15:26N 54°22' E 010°07'0 0.0
2018-Dec-01 14:56N 54°22' E 010°07'0 0.0
2018-Dec-01 14:29N 54°22' E 010°07'  

Dump ship's entire track history